Time;durP1;ratioP1;P1;durP2;ratioP2;P2;SDS_P1;SDS_P2;PMS_P1;PMS_P2;Temp;Humidity;BMP_temperature;BMP_pressure;BME280_temperature;BME280_humidity;BME280_pressure;Samples;Min_cycle;Max_cycle;Signal;HPM_P1;HPM_P2
2024/01/31 00:01:10;;;;;;;61.65;26.88;;;10.00;99.90;;;;;;5029302;28;20099;-78
2024/01/31 00:03:36;;;;;;;52.30;25.33;;;10.00;99.90;;;;;;5028412;28;20036;-78
2024/01/31 00:06:05;;;;;;;55.15;26.90;;;10.00;99.90;;;;;;5031092;28;20030;-77
2024/01/31 00:08:31;;;;;;;54.58;26.88;;;10.00;99.90;;;;;;5032821;28;20034;-80
2024/01/31 00:10:57;;;;;;;54.55;25.60;;;10.00;99.90;;;;;;5033562;28;20016;-80
2024/01/31 00:13:24;;;;;;;54.58;25.77;;;10.00;99.90;;;;;;5033921;28;20029;-77
2024/01/31 00:15:50;;;;;;;54.85;26.48;;;10.00;99.90;;;;;;5030575;28;20025;-78
2024/01/31 00:18:16;;;;;;;54.67;26.17;;;9.90;99.90;;;;;;5029817;28;20526;-72
2024/01/31 00:20:41;;;;;;;30.88;16.92;;;10.00;99.90;;;;;;5027578;28;20057;-73
2024/01/31 00:23:07;;;;;;;48.20;25.35;;;10.10;99.90;;;;;;5013088;28;20387;-79
2024/01/31 00:25:33;;;;;;;52.45;24.15;;;10.10;99.90;;;;;;5031361;28;20029;-79
2024/01/31 00:27:59;;;;;;;47.25;25.38;;;10.00;99.90;;;;;;5033452;28;20039;-79
2024/01/31 00:30:24;;;;;;;49.40;25.02;;;10.00;99.90;;;;;;5032996;28;20038;-76
2024/01/31 00:32:50;;;;;;;51.47;25.20;;;9.90;99.90;;;;;;5029388;28;20048;-79
2024/01/31 00:35:16;;;;;;;51.50;26.02;;;10.00;99.90;;;;;;5033236;28;20402;-79
2024/01/31 00:37:41;;;;;;;47.65;24.83;;;10.00;99.90;;;;;;5032623;28;20032;-79
2024/01/31 00:40:09;;;;;;;55.88;26.23;;;9.90;99.90;;;;;;5028277;28;20030;-80
2024/01/31 00:42:38;;;;;;;52.85;24.40;;;10.00;99.90;;;;;;5026160;28;20122;-80
2024/01/31 00:45:05;;;;;;;56.47;24.63;;;9.90;99.90;;;;;;5013767;28;20030;-78
2024/01/31 00:47:31;;;;;;;51.75;24.48;;;9.90;99.90;;;;;;5015439;28;20049;-78
2024/01/31 00:49:57;;;;;;;48.45;24.50;;;10.00;99.90;;;;;;5032584;28;20021;-79
2024/01/31 00:52:23;;;;;;;51.60;25.73;;;10.00;99.90;;;;;;5032889;28;20117;-79
2024/01/31 00:54:49;;;;;;;55.75;24.50;;;10.00;99.90;;;;;;5030279;28;20116;-79
2024/01/31 00:57:15;;;;;;;54.78;27.05;;;9.90;99.90;;;;;;5032971;28;20021;-78
2024/01/31 00:59:42;;;;;;;53.08;25.77;;;9.90;99.90;;;;;;5032852;28;20086;-78
2024/01/31 01:02:08;;;;;;;57.00;26.05;;;9.90;99.90;;;;;;5032322;28;20025;-79
2024/01/31 01:04:34;;;;;;;56.75;26.98;;;9.90;99.90;;;;;;5032428;28;20029;-78
2024/01/31 01:07:00;;;;;;;55.65;25.45;;;9.90;99.90;;;;;;5032702;28;20368;-80
2024/01/31 01:09:26;;;;;;;53.80;26.73;;;9.90;99.90;;;;;;5032874;28;20467;-80
2024/01/31 01:11:52;;;;;;;59.15;26.23;;;9.90;99.90;;;;;;5032951;28;20029;-79
2024/01/31 01:14:18;;;;;;;56.97;26.48;;;9.90;99.90;;;;;;5031811;28;20463;-79
2024/01/31 01:16:43;;;;;;;52.95;26.08;;;9.90;99.90;;;;;;5031941;28;20026;-78
2024/01/31 01:19:09;;;;;;;51.95;24.90;;;9.90;99.90;;;;;;5022955;28;20087;-78
2024/01/31 01:21:36;;;;;;;53.72;23.38;;;9.90;99.90;;;;;;5018392;28;20029;-78
2024/01/31 01:24:02;;;;;;;48.42;21.02;;;9.90;99.90;;;;;;5025620;28;20030;-79
2024/01/31 01:26:28;;;;;;;46.53;19.70;;;9.90;99.90;;;;;;5023623;28;20038;-78
2024/01/31 01:28:53;;;;;;;45.60;18.98;;;9.90;99.90;;;;;;5032610;28;20044;-79
2024/01/31 01:31:19;;;;;;;43.88;17.30;;;9.90;99.90;;;;;;5031657;28;20478;-78
2024/01/31 01:33:45;;;;;;;40.55;16.83;;;9.90;99.90;;;;;;5032353;28;20029;-78
2024/01/31 01:36:11;;;;;;;36.38;15.35;;;9.90;99.90;;;;;;5023058;28;20117;-78
2024/01/31 01:38:37;;;;;;;35.17;14.98;;;9.90;99.90;;;;;;5020357;28;20048;-78
2024/01/31 01:41:04;;;;;;;44.20;15.15;;;9.90;99.90;;;;;;5022126;28;20106;-77
2024/01/31 01:43:30;;;;;;;34.72;14.27;;;9.90;99.90;;;;;;5020821;28;20053;-78
2024/01/31 01:46:09;;;;;;;35.40;13.50;;;9.90;99.90;;;;;;5022253;28;20458;-78
2024/01/31 01:48:35;;;;;;;36.60;12.52;;;9.90;99.90;;;;;;5020837;28;20496;-78
2024/01/31 01:51:02;;;;;;;29.38;12.45;;;9.80;99.90;;;;;;5019638;28;20014;-78
2024/01/31 01:53:33;;;;;;;33.78;13.10;;;9.90;99.90;;;;;;5022064;28;20045;-77
2024/01/31 01:55:59;;;;;;;38.25;11.88;;;9.90;99.90;;;;;;5020968;28;20068;-78
2024/01/31 01:58:25;;;;;;;29.73;11.85;;;9.90;99.90;;;;;;5022364;28;20028;-77
2024/01/31 02:00:52;;;;;;;37.33;12.27;;;9.90;99.90;;;;;;5025616;28;20101;-78
2024/01/31 02:03:17;;;;;;;32.58;11.15;;;9.80;99.90;;;;;;5020910;28;20014;-78
2024/01/31 02:05:45;;;;;;;30.42;11.65;;;9.80;99.90;;;;;;5012126;28;20113;-77
2024/01/31 02:08:11;;;;;;;33.58;13.50;;;9.80;99.90;;;;;;5012067;28;20034;-78
2024/01/31 02:10:37;;;;;;;36.55;12.27;;;9.80;99.90;;;;;;5012469;28;20022;-79
2024/01/31 02:13:03;;;;;;;39.67;11.93;;;9.80;99.90;;;;;;5011192;28;20425;-79
2024/01/31 02:15:29;;;;;;;34.80;12.25;;;9.80;99.90;;;;;;5019085;28;20459;-78
2024/01/31 02:17:54;;;;;;;39.83;12.65;;;9.80;99.90;;;;;;5032125;28;20034;-79
2024/01/31 02:20:22;;;;;;;45.10;11.98;;;9.80;99.90;;;;;;5017562;28;20475;-80
2024/01/31 02:22:48;;;;;;;37.45;12.65;;;9.80;99.90;;;;;;5017389;28;20504;-79
2024/01/31 02:25:14;;;;;;;38.08;13.05;;;9.80;99.90;;;;;;5026586;28;20032;-79
2024/01/31 02:27:41;;;;;;;40.22;13.27;;;9.80;99.90;;;;;;5030832;28;20033;-79
2024/01/31 02:30:10;;;;;;;37.35;12.57;;;9.70;99.90;;;;;;5031312;28;20104;-80
2024/01/31 02:32:36;;;;;;;45.90;14.95;;;9.70;99.90;;;;;;5030834;28;20034;-79
2024/01/31 02:35:02;;;;;;;38.00;12.20;;;9.70;99.90;;;;;;5031787;28;20029;-79
2024/01/31 02:37:28;;;;;;;40.83;12.32;;;9.70;99.90;;;;;;5032053;28;20026;-78
2024/01/31 02:39:54;;;;;;;36.95;13.00;;;9.70;99.90;;;;;;5031225;28;20489;-79
2024/01/31 02:42:19;;;;;;;45.97;13.55;;;9.70;99.90;;;;;;5030095;28;20021;-79
2024/01/31 02:44:45;;;;;;;34.03;12.77;;;9.70;99.90;;;;;;5031722;28;20033;-79
2024/01/31 02:47:11;;;;;;;43.88;13.30;;;9.70;99.90;;;;;;5030793;28;20417;-79
2024/01/31 02:49:36;;;;;;;41.42;13.27;;;9.80;99.90;;;;;;5031378;28;20028;-80
2024/01/31 02:52:02;;;;;;;35.88;12.45;;;9.80;99.90;;;;;;5031475;28;20417;-79
2024/01/31 02:54:28;;;;;;;31.63;12.52;;;9.80;99.90;;;;;;5030562;28;20493;-80
2024/01/31 02:56:53;;;;;;;42.80;13.27;;;9.80;99.90;;;;;;5031626;28;20583;-80
2024/01/31 02:59:22;;;;;;;40.10;12.93;;;9.80;99.90;;;;;;5031334;28;20033;-80
2024/01/31 03:01:49;;;;;;;43.42;14.63;;;9.80;99.90;;;;;;5031322;28;20037;-80
2024/01/31 03:04:15;;;;;;;51.30;14.73;;;9.80;99.90;;;;;;5030315;28;20026;-80
2024/01/31 03:06:41;;;;;;;46.08;15.20;;;9.70;99.90;;;;;;5031717;28;20036;-80
2024/01/31 03:09:06;;;;;;;50.28;17.00;;;9.70;99.90;;;;;;5030951;28;20026;-79
2024/01/31 03:11:32;;;;;;;48.50;16.45;;;9.70;99.90;;;;;;5031102;28;20044;-80
2024/01/31 03:13:59;;;;;;;46.53;15.23;;;9.70;99.90;;;;;;5030636;28;20104;-80
2024/01/31 03:16:25;;;;;;;51.13;16.05;;;9.80;99.90;;;;;;5031784;28;20044;-80
2024/01/31 03:18:50;;;;;;;53.08;16.20;;;9.70;99.90;;;;;;5031134;28;20017;-80
2024/01/31 03:21:16;;;;;;;39.83;16.25;;;9.60;99.90;;;;;;5031422;28;20040;-80
2024/01/31 03:23:42;;;;;;;45.30;16.08;;;9.60;99.90;;;;;;5030536;28;20056;-80
2024/01/31 03:26:07;;;;;;;46.28;16.90;;;9.60;99.90;;;;;;5031071;28;20068;-80
2024/01/31 03:28:33;;;;;;;52.60;16.40;;;9.70;99.90;;;;;;5031466;28;20378;-78
2024/01/31 03:30:59;;;;;;;47.13;16.23;;;9.70;99.90;;;;;;5032120;28;20037;-80
2024/01/31 03:33:24;;;;;;;50.00;17.45;;;9.80;99.90;;;;;;5034424;28;20028;-80
2024/01/31 03:35:50;;;;;;;49.95;16.30;;;9.70;99.90;;;;;;5034307;28;20025;-80
2024/01/31 03:38:16;;;;;;;49.72;16.63;;;9.70;99.90;;;;;;5034145;28;20043;-80
2024/01/31 03:40:42;;;;;;;51.75;16.63;;;9.70;99.90;;;;;;5033572;28;20026;-79
2024/01/31 03:43:08;;;;;;;48.63;16.30;;;9.70;99.90;;;;;;5033995;28;20064;-80
2024/01/31 03:45:33;;;;;;;45.08;15.60;;;9.80;99.90;;;;;;5034574;28;20067;-80
2024/01/31 03:47:59;;;;;;;34.63;15.15;;;9.80;99.90;;;;;;5032970;28;20506;-80
2024/01/31 03:50:26;;;;;;;42.67;16.25;;;9.80;99.90;;;;;;5034503;28;20026;-80
2024/01/31 03:52:52;;;;;;;45.15;16.92;;;9.80;99.90;;;;;;5035084;28;20029;-80
2024/01/31 03:55:18;;;;;;;48.25;17.58;;;9.80;99.90;;;;;;5034046;28;20021;-80
2024/01/31 03:57:44;;;;;;;48.63;17.90;;;9.80;99.90;;;;;;5034799;28;20245;-80
2024/01/31 04:00:10;;;;;;;46.10;17.40;;;9.80;99.90;;;;;;5033947;28;20116;-80
2024/01/31 04:02:37;;;;;;;56.47;18.60;;;9.70;99.90;;;;;;5034364;28;20458;-77
2024/01/31 04:05:03;;;;;;;61.25;19.17;;;9.60;99.90;;;;;;5034516;28;20258;-79
2024/01/31 04:07:29;;;;;;;63.53;20.42;;;9.70;99.90;;;;;;5034207;28;20513;-80
2024/01/31 04:09:55;;;;;;;52.05;17.33;;;9.70;99.90;;;;;;5033743;28;20033;-80
2024/01/31 04:12:21;;;;;;;55.17;17.75;;;9.70;99.90;;;;;;5033819;28;20025;-79
2024/01/31 04:14:46;;;;;;;50.08;17.80;;;9.70;99.90;;;;;;5033722;28;20029;-80
2024/01/31 04:17:12;;;;;;;58.88;18.88;;;9.70;99.90;;;;;;5034249;28;20032;-79
2024/01/31 04:19:38;;;;;;;45.72;16.88;;;9.60;99.90;;;;;;5022097;28;20411;-80
2024/01/31 04:22:04;;;;;;;61.75;18.58;;;9.60;99.90;;;;;;5013459;28;20029;-80
2024/01/31 04:24:29;;;;;;;56.10;19.35;;;9.70;99.90;;;;;;5028100;28;20032;-79
2024/01/31 04:26:55;;;;;;;60.08;18.77;;;9.70;99.90;;;;;;5034090;28;20072;-80
2024/01/31 04:29:21;;;;;;;53.33;18.67;;;9.50;99.90;;;;;;5025051;28;20368;-79
2024/01/31 04:31:52;;;;;;;60.53;18.60;;;9.60;99.90;;;;;;5014452;28;20026;-79
2024/01/31 04:34:20;;;;;;;59.45;18.63;;;9.60;99.90;;;;;;5033786;28;20030;-79
2024/01/31 04:36:46;;;;;;;67.35;20.13;;;9.60;99.90;;;;;;5033944;28;20025;-80
2024/01/31 04:39:11;;;;;;;58.88;20.05;;;9.60;99.90;;;;;;5033465;28;20541;-80
2024/01/31 04:41:37;;;;;;;72.53;21.63;;;9.30;99.90;;;;;;5033218;28;20079;-78
2024/01/31 04:44:03;;;;;;;60.40;19.45;;;9.30;99.90;;;;;;5033158;28;20028;-79
2024/01/31 04:46:29;;;;;;;52.35;19.13;;;9.40;99.90;;;;;;5033433;28;20076;-80
2024/01/31 04:48:55;;;;;;;46.47;18.75;;;9.40;99.90;;;;;;5033620;28;20104;-80
2024/01/31 04:51:20;;;;;;;77.35;22.85;;;9.50;99.90;;;;;;5034003;28;20064;-80
2024/01/31 04:53:46;;;;;;;55.78;20.45;;;9.50;99.90;;;;;;5033352;28;20029;-80
2024/01/31 04:56:12;;;;;;;73.15;20.83;;;9.60;99.90;;;;;;5033590;28;20416;-79
2024/01/31 04:58:38;;;;;;;56.17;20.15;;;9.50;99.90;;;;;;5033233;28;20029;-80
2024/01/31 05:01:05;;;;;;;68.85;22.33;;;9.60;99.90;;;;;;5033213;28;20034;-80
2024/01/31 05:03:30;;;;;;;60.90;22.35;;;9.60;99.90;;;;;;5032949;28;20032;-80
2024/01/31 05:05:56;;;;;;;66.43;23.08;;;9.60;99.90;;;;;;5032890;28;20041;-80
2024/01/31 05:08:22;;;;;;;64.45;21.77;;;9.60;99.90;;;;;;5032416;28;20033;-79
2024/01/31 05:10:48;;;;;;;63.33;24.90;;;9.60;99.90;;;;;;5033236;28;20136;-80
2024/01/31 05:13:13;;;;;;;73.53;24.63;;;9.50;99.90;;;;;;5033339;28;20529;-79
2024/01/31 05:15:40;;;;;;;67.05;23.13;;;9.50;99.90;;;;;;5025916;28;20056;-80
2024/01/31 05:18:05;;;;;;;68.80;22.88;;;9.40;99.90;;;;;;5012905;28;20101;-80
2024/01/31 05:20:31;;;;;;;72.78;24.17;;;9.40;99.90;;;;;;5014826;28;20085;-80
2024/01/31 05:22:57;;;;;;;73.45;25.98;;;9.50;99.90;;;;;;5031753;28;20033;-80
2024/01/31 05:25:23;;;;;;;70.25;23.20;;;9.50;99.90;;;;;;5032031;28;20028;-79
2024/01/31 05:27:49;;;;;;;64.20;24.95;;;9.50;99.90;;;;;;5032240;28;20120;-79
2024/01/31 05:30:15;;;;;;;72.03;25.42;;;9.40;99.90;;;;;;5033636;28;20025;-80
2024/01/31 05:32:41;;;;;;;84.00;25.92;;;9.30;99.90;;;;;;5032194;28;20594;-79
2024/01/31 05:35:07;;;;;;;59.60;22.25;;;9.30;99.90;;;;;;5032751;28;20071;-79
2024/01/31 05:37:33;;;;;;;65.30;24.85;;;9.30;99.90;;;;;;5032206;28;20108;-80
2024/01/31 05:39:59;;;;;;;60.63;25.10;;;9.40;99.90;;;;;;5031106;28;20120;-79
2024/01/31 05:42:25;;;;;;;70.53;24.08;;;9.40;99.90;;;;;;5032597;28;20040;-80
2024/01/31 05:44:53;;;;;;;67.20;23.23;;;9.40;99.90;;;;;;5032004;28;20083;-79
2024/01/31 05:47:19;;;;;;;69.38;25.67;;;9.40;99.90;;;;;;5032709;28;20033;-80
2024/01/31 05:49:45;;;;;;;71.20;23.25;;;9.40;99.90;;;;;;5032210;28;20014;-80
2024/01/31 05:52:11;;;;;;;75.18;26.90;;;9.30;99.90;;;;;;5032241;28;20084;-80
2024/01/31 05:54:38;;;;;;;70.68;25.83;;;9.20;99.90;;;;;;5031063;28;20463;-79
2024/01/31 05:57:05;;;;;;;70.03;24.58;;;9.10;99.90;;;;;;5032542;28;20083;-80
2024/01/31 05:59:30;;;;;;;64.93;24.55;;;9.10;99.90;;;;;;5032058;28;20363;-80
2024/01/31 06:01:56;;;;;;;62.50;24.63;;;9.10;99.90;;;;;;5032349;28;20043;-79
2024/01/31 06:04:22;;;;;;;69.28;23.35;;;9.00;99.90;;;;;;5030659;28;20025;-80
2024/01/31 06:06:48;;;;;;;64.70;23.60;;;9.00;99.90;;;;;;5032431;28;20041;-78
2024/01/31 06:09:14;;;;;;;64.05;25.17;;;9.10;99.90;;;;;;5032193;28;20664;-79
2024/01/31 06:11:40;;;;;;;61.60;24.10;;;9.20;99.90;;;;;;5031135;28;20021;-79
2024/01/31 06:14:06;;;;;;;61.50;24.20;;;9.30;99.90;;;;;;5024866;28;20045;-79
2024/01/31 06:16:33;;;;;;;67.18;22.30;;;9.30;99.90;;;;;;5014431;28;20032;-79
2024/01/31 06:19:01;;;;;;;62.72;23.45;;;9.20;99.90;;;;;;5011616;28;20018;-79
2024/01/31 06:21:27;;;;;;;66.65;23.98;;;9.30;99.90;;;;;;5011721;28;20037;-79
2024/01/31 06:23:54;;;;;;;62.95;22.13;;;9.10;99.90;;;;;;5021097;28;20071;-77
2024/01/31 06:26:20;;;;;;;45.92;18.63;;;9.10;99.90;;;;;;5032295;28;20065;-72
2024/01/31 06:28:55;;;;;;;60.20;22.10;;;9.20;99.90;;;;;;5032211;28;20030;-76
2024/01/31 06:31:27;;;;;;;67.57;23.15;;;9.30;99.90;;;;;;5032523;28;20029;-79
2024/01/31 06:33:53;;;;;;;55.03;20.55;;;9.30;99.90;;;;;;5031034;28;20429;-78
2024/01/31 06:36:20;;;;;;;55.95;22.17;;;9.30;99.90;;;;;;5031679;28;20079;-79
2024/01/31 06:38:46;;;;;;;59.95;21.55;;;9.20;99.90;;;;;;5030774;28;20578;-79
2024/01/31 06:41:16;;;;;;;55.25;21.85;;;9.30;99.90;;;;;;5032036;28;20026;-79
2024/01/31 06:43:42;;;;;;;61.58;23.70;;;9.30;99.90;;;;;;5031924;28;20022;-79
2024/01/31 06:46:07;;;;;;;63.75;20.60;;;9.30;99.90;;;;;;5030507;28;20036;-76
2024/01/31 06:48:33;;;;;;;59.30;23.00;;;9.30;99.90;;;;;;5031590;28;20155;-76
2024/01/31 06:50:59;;;;;;;55.88;22.38;;;9.10;99.90;;;;;;5031361;28;20569;-80
2024/01/31 06:53:25;;;;;;;52.50;20.10;;;9.20;99.90;;;;;;5031116;28;20125;-80
2024/01/31 06:55:51;;;;;;;53.78;19.40;;;9.30;99.90;;;;;;5031634;28;20033;-79
2024/01/31 06:58:17;;;;;;;51.65;19.25;;;9.30;99.90;;;;;;5031538;28;20034;-78
2024/01/31 07:00:43;;;;;;;45.25;17.70;;;9.20;99.90;;;;;;5027889;28;20065;-80
2024/01/31 07:03:08;;;;;;;47.85;19.60;;;9.20;99.90;;;;;;5031361;28;20493;-79
2024/01/31 07:05:34;;;;;;;50.38;19.70;;;9.10;99.90;;;;;;5027501;28;20489;-77
2024/01/31 07:08:00;;;;;;;55.47;19.55;;;9.20;99.90;;;;;;5014607;28;20040;-78
2024/01/31 07:10:26;;;;;;;47.90;21.55;;;9.20;99.90;;;;;;5028417;28;20033;-79
2024/01/31 07:12:53;;;;;;;47.33;19.23;;;9.20;99.90;;;;;;5033165;28;20379;-79
2024/01/31 07:15:20;;;;;;;48.88;18.27;;;9.20;99.90;;;;;;5035073;28;20021;-78
2024/01/31 07:17:46;;;;;;;49.85;19.08;;;9.20;99.90;;;;;;5035047;28;20105;-79
2024/01/31 07:20:12;;;;;;;42.75;17.73;;;9.10;99.90;;;;;;5024769;28;20101;-78
2024/01/31 07:22:38;;;;;;;53.65;19.33;;;9.10;99.90;;;;;;5040138;28;20029;-80
2024/01/31 07:25:04;;;;;;;57.50;19.45;;;9.20;99.90;;;;;;5016760;28;20076;-80
2024/01/31 07:27:30;;;;;;;54.30;19.23;;;9.20;99.90;;;;;;5014774;28;20037;-78
2024/01/31 07:29:55;;;;;;;62.00;21.75;;;9.20;99.90;;;;;;5015835;28;20103;-77
2024/01/31 07:32:37;;;;;;;68.85;22.83;;;9.20;99.90;;;;;;5035153;28;20475;-77
2024/01/31 07:35:04;;;;;;;60.80;22.13;;;9.20;99.90;;;;;;5034384;28;20017;-79
2024/01/31 07:37:30;;;;;;;58.10;22.48;;;9.10;99.90;;;;;;5034298;28;20029;-76
2024/01/31 07:39:57;;;;;;;64.00;22.40;;;9.20;99.90;;;;;;5031287;28;20022;-77
2024/01/31 07:42:23;;;;;;;65.85;25.58;;;9.20;99.90;;;;;;5014484;28;20474;-79
2024/01/31 07:44:49;;;;;;;71.43;26.13;;;9.30;99.90;;;;;;5014836;28;20052;-81
2024/01/31 07:47:15;;;;;;;64.53;25.80;;;9.20;99.90;;;;;;5014484;28;20095;-80
2024/01/31 07:49:41;;;;;;;66.32;26.33;;;9.20;99.90;;;;;;5014768;28;20348;-80
2024/01/31 07:52:07;;;;;;;78.80;28.23;;;9.20;99.90;;;;;;5014857;28;20033;-79
2024/01/31 07:54:32;;;;;;;78.82;28.50;;;9.20;99.90;;;;;;5051328;28;20033;-80
2024/01/31 07:56:59;;;;;;;77.15;28.55;;;9.20;99.90;;;;;;5034108;28;20116;-79
2024/01/31 07:59:28;;;;;;;79.97;29.67;;;9.20;99.90;;;;;;5034258;28;20079;-77
2024/01/31 08:02:03;;;;;;;70.15;27.27;;;9.20;99.90;;;;;;5028832;28;20037;-77
2024/01/31 08:04:28;;;;;;;68.10;26.25;;;9.30;99.90;;;;;;5032945;28;20021;-79
2024/01/31 08:06:54;;;;;;;83.63;30.60;;;9.30;99.90;;;;;;5045073;28;20445;-76
2024/01/31 08:09:22;;;;;;;82.07;30.00;;;9.30;99.90;;;;;;5050409;28;20433;-78
2024/01/31 08:11:48;;;;;;;75.82;28.85;;;9.30;99.90;;;;;;5033516;28;20033;-79
2024/01/31 08:14:14;;;;;;;82.40;30.70;;;9.40;99.90;;;;;;5034459;28;20033;-79
2024/01/31 08:16:40;;;;;;;96.43;31.73;;;9.40;99.90;;;;;;5033370;28;20060;-76
2024/01/31 08:19:06;;;;;;;88.95;32.38;;;9.30;99.90;;;;;;5031661;28;20076;-79
2024/01/31 08:21:34;;;;;;;76.90;30.42;;;9.40;99.90;;;;;;5034250;28;20048;-78
2024/01/31 08:24:00;;;;;;;82.97;31.80;;;9.40;99.90;;;;;;5032479;28;20372;-76
2024/01/31 08:26:26;;;;;;;83.32;31.63;;;9.40;99.90;;;;;;5029881;28;20082;-80
2024/01/31 08:28:51;;;;;;;81.43;32.17;;;9.40;99.90;;;;;;5033693;28;20030;-77
2024/01/31 08:31:46;;;;;;;89.05;31.60;;;9.40;99.90;;;;;;5017153;28;20242;-75
2024/01/31 08:34:33;;;;;;;91.78;31.80;;;9.40;99.90;;;;;;5012027;28;20017;-79
2024/01/31 08:36:59;;;;;;;81.13;31.55;;;9.50;99.90;;;;;;5031077;28;20091;-77
2024/01/31 08:39:24;;;;;;;78.22;33.10;;;9.50;99.90;;;;;;5031929;28;20029;-79
2024/01/31 08:41:50;;;;;;;85.07;33.67;;;9.40;99.90;;;;;;5032207;28;20022;-81
2024/01/31 08:44:16;;;;;;;86.10;33.83;;;9.50;99.90;;;;;;5032897;28;20037;-77
2024/01/31 08:46:42;;;;;;;90.80;31.95;;;9.60;99.90;;;;;;5030823;28;20159;-76
2024/01/31 08:49:07;;;;;;;78.50;33.50;;;9.50;99.90;;;;;;5013524;28;20033;-79
2024/01/31 08:51:35;;;;;;;86.45;34.15;;;9.50;99.90;;;;;;5013255;28;20045;-79
2024/01/31 08:54:26;;;;;;;90.40;32.47;;;9.50;99.90;;;;;;5023589;28;20033;-75
2024/01/31 08:56:53;;;;;;;93.38;35.63;;;9.50;99.90;;;;;;5015918;28;20060;-77
2024/01/31 08:59:18;;;;;;;87.95;35.00;;;9.50;99.90;;;;;;5024102;28;20037;-77
2024/01/31 09:01:57;;;;;;;88.85;34.83;;;9.60;99.90;;;;;;5030927;28;20262;-76
2024/01/31 09:04:24;;;;;;;80.15;33.83;;;9.50;99.90;;;;;;5015264;28;20032;-77
2024/01/31 09:06:49;;;;;;;81.75;33.38;;;9.50;99.90;;;;;;5032006;28;20051;-77
2024/01/31 09:09:24;;;;;;;79.68;34.15;;;9.50;99.90;;;;;;5049989;28;20029;-77
2024/01/31 09:11:50;;;;;;;75.15;31.83;;;9.50;99.90;;;;;;5029509;28;20021;-77
2024/01/31 09:14:15;;;;;;;84.25;35.10;;;9.50;99.90;;;;;;5025814;28;20041;-80
2024/01/31 09:16:41;;;;;;;83.85;35.38;;;9.50;99.90;;;;;;5026277;28;20564;-78
2024/01/31 09:19:07;;;;;;;76.50;33.90;;;9.60;99.90;;;;;;5033321;28;20031;-79
2024/01/31 09:21:35;;;;;;;87.10;35.60;;;9.50;99.90;;;;;;5030573;28;20025;-78
2024/01/31 09:24:01;;;;;;;83.25;34.33;;;9.50;99.90;;;;;;5032334;28;20030;-78
2024/01/31 09:26:27;;;;;;;84.75;36.58;;;9.50;99.90;;;;;;5044110;28;20132;-79
2024/01/31 09:28:52;;;;;;;78.00;34.13;;;9.50;99.90;;;;;;5050118;28;20029;-79
2024/01/31 09:31:22;;;;;;;73.88;32.83;;;9.50;99.90;;;;;;5024043;28;20346;-79
2024/01/31 09:33:52;;;;;;;64.15;29.35;;;9.50;99.90;;;;;;5021213;28;20388;-79
2024/01/31 09:36:18;;;;;;;68.28;30.98;;;9.50;99.90;;;;;;5022081;28;20029;-80
2024/01/31 09:38:47;;;;;;;72.18;31.40;;;9.50;99.90;;;;;;5023187;28;20020;-79
2024/01/31 09:41:15;;;;;;;52.53;27.40;;;9.60;99.90;;;;;;5019141;28;20018;-80
2024/01/31 09:43:40;;;;;;;59.50;29.48;;;9.60;99.90;;;;;;5022204;28;20050;-80
2024/01/31 09:46:07;;;;;;;53.65;26.50;;;9.70;99.90;;;;;;5020338;28;20486;-79
2024/01/31 09:48:34;;;;;;;45.60;23.00;;;9.70;99.90;;;;;;5020125;28;20097;-79
2024/01/31 09:51:02;;;;;;;54.08;24.83;;;9.70;99.90;;;;;;5019889;28;20029;-80
2024/01/31 09:53:39;;;;;;;43.03;22.30;;;9.70;99.90;;;;;;5015095;28;20026;-78
2024/01/31 09:56:06;;;;;;;36.83;21.00;;;9.70;99.90;;;;;;5029652;28;20025;-78
2024/01/31 09:58:32;;;;;;;37.60;19.35;;;9.60;99.90;;;;;;5030501;28;20562;-77
2024/01/31 10:01:02;;;;;;;40.15;21.75;;;9.70;99.90;;;;;;5029351;28;20117;-80
2024/01/31 10:03:28;;;;;;;38.42;19.98;;;9.60;99.90;;;;;;5031368;28;20040;-79
2024/01/31 10:05:54;;;;;;;37.78;20.25;;;9.70;99.90;;;;;;5031975;28;20101;-78
2024/01/31 10:08:19;;;;;;;35.25;20.60;;;9.80;99.90;;;;;;5030874;28;20432;-80
2024/01/31 10:10:45;;;;;;;30.70;18.35;;;9.90;99.90;;;;;;5031689;28;20505;-79
2024/01/31 10:13:11;;;;;;;35.28;18.85;;;9.80;99.90;;;;;;5029499;28;20034;-79
2024/01/31 10:15:37;;;;;;;37.15;18.45;;;9.80;99.90;;;;;;5030552;28;20030;-77
2024/01/31 10:18:04;;;;;;;28.98;16.48;;;9.80;99.90;;;;;;5033346;28;20386;-79
2024/01/31 10:20:30;;;;;;;28.25;16.65;;;9.80;99.90;;;;;;5021225;28;20115;-77
2024/01/31 10:22:58;;;;;;;32.25;16.77;;;9.80;99.90;;;;;;5011907;28;20025;-77
2024/01/31 10:25:25;;;;;;;28.42;17.65;;;9.80;99.90;;;;;;5014459;28;20623;-77
2024/01/31 10:27:52;;;;;;;24.92;15.15;;;9.80;99.90;;;;;;5037488;28;20033;-77
2024/01/31 10:30:18;;;;;;;25.38;14.57;;;9.80;99.90;;;;;;5039119;28;20036;-76
2024/01/31 10:32:46;;;;;;;27.25;16.02;;;9.90;99.90;;;;;;5039801;28;20029;-77
2024/01/31 10:35:12;;;;;;;26.70;15.52;;;9.70;99.90;;;;;;5039740;28;20413;-76
2024/01/31 10:37:38;;;;;;;30.90;16.58;;;9.70;99.90;;;;;;5038526;28;20025;-76
2024/01/31 10:40:11;;;;;;;27.83;17.40;;;9.80;99.90;;;;;;5039421;28;20021;-76
2024/01/31 10:42:38;;;;;;;29.20;16.00;;;9.70;99.90;;;;;;5042514;28;20512;-76
2024/01/31 10:45:05;;;;;;;27.25;16.40;;;9.80;99.90;;;;;;5042664;28;20020;-76
2024/01/31 10:47:32;;;;;;;24.77;15.75;;;9.80;99.90;;;;;;5043957;28;20038;-76
2024/01/31 10:49:58;;;;;;;23.85;15.52;;;9.80;99.90;;;;;;5044002;28;20040;-77
2024/01/31 10:52:30;;;;;;;27.48;16.95;;;9.80;99.90;;;;;;5042320;28;20036;-77
2024/01/31 10:54:59;;;;;;;28.42;16.88;;;9.80;99.90;;;;;;5046301;28;20529;-76
2024/01/31 10:57:26;;;;;;;26.02;16.67;;;9.70;99.90;;;;;;5046740;28;20020;-77
2024/01/31 10:59:55;;;;;;;26.60;16.40;;;9.80;99.90;;;;;;5044814;28;20804;-76
2024/01/31 11:02:30;;;;;;;26.70;15.93;;;9.70;99.90;;;;;;5041244;28;20028;-77
2024/01/31 11:05:06;;;;;;;24.55;16.25;;;9.60;99.90;;;;;;5038982;28;20028;-77
2024/01/31 11:07:42;;;;;;;23.80;15.52;;;9.60;99.90;;;;;;5043007;28;20033;-76
2024/01/31 11:10:11;;;;;;;24.88;17.05;;;9.70;99.90;;;;;;5044189;28;20488;-76
2024/01/31 11:12:37;;;;;;;28.00;17.13;;;9.70;99.90;;;;;;5043402;28;20318;-76
2024/01/31 11:15:05;;;;;;;26.95;18.20;;;9.70;99.90;;;;;;5044395;28;20668;-76
2024/01/31 11:17:34;;;;;;;25.40;16.55;;;9.60;99.90;;;;;;5042435;28;20021;-76
2024/01/31 11:20:01;;;;;;;26.52;16.08;;;9.60;99.90;;;;;;5045654;28;20075;-76
2024/01/31 11:22:31;;;;;;;26.63;16.73;;;9.60;99.90;;;;;;5045559;28;20033;-76
2024/01/31 11:25:02;;;;;;;24.85;18.40;;;9.60;99.90;;;;;;5045001;28;20478;-76
2024/01/31 11:27:29;;;;;;;25.58;16.13;;;9.60;99.90;;;;;;5043046;28;20041;-76
2024/01/31 11:29:55;;;;;;;23.75;16.17;;;9.60;99.90;;;;;;5042819;28;20083;-76
2024/01/31 11:32:22;;;;;;;24.58;15.82;;;9.70;99.90;;;;;;5046155;28;20498;-77
2024/01/31 11:35:13;;;;;;;24.00;15.63;;;9.60;99.90;;;;;;5043436;28;20351;-77
2024/01/31 11:37:39;;;;;;;23.80;16.10;;;9.60;99.90;;;;;;5039330;28;20028;-76
2024/01/31 11:40:06;;;;;;;22.90;15.18;;;9.60;99.90;;;;;;5043535;28;20548;-76
2024/01/31 11:42:32;;;;;;;21.40;13.63;;;9.60;99.90;;;;;;5040872;28;20550;-76
2024/01/31 11:44:59;;;;;;;19.25;11.45;;;9.60;99.90;;;;;;5031678;28;20112;-76
2024/01/31 11:47:25;;;;;;;10.52;8.25;;;9.50;99.90;;;;;;5041525;28;20041;-76
2024/01/31 11:49:51;;;;;;;13.55;9.00;;;9.60;99.90;;;;;;5031282;28;20017;-76
2024/01/31 11:52:16;;;;;;;11.07;8.60;;;9.60;99.90;;;;;;5035386;28;20026;-78
2024/01/31 11:54:43;;;;;;;11.75;8.88;;;9.60;99.90;;;;;;5042256;28;20048;-78
2024/01/31 11:57:09;;;;;;;11.73;8.20;;;9.40;99.90;;;;;;5037669;28;20059;-76
2024/01/31 11:59:35;;;;;;;13.38;8.30;;;9.50;99.90;;;;;;5031736;28;20061;-76
2024/01/31 12:02:01;;;;;;;12.75;8.18;;;9.40;99.90;;;;;;5039480;28;20040;-78
2024/01/31 12:04:26;;;;;;;12.77;8.57;;;9.40;99.90;;;;;;5038778;28;20466;-79
2024/01/31 12:07:03;;;;;;;13.60;7.63;;;9.40;99.90;;;;;;5038909;28;20087;-78
2024/01/31 12:09:29;;;;;;;12.48;6.75;;;9.40;99.90;;;;;;5031627;28;20018;-80
2024/01/31 12:11:55;;;;;;;10.40;6.57;;;9.40;99.90;;;;;;5042044;28;20044;-79
2024/01/31 12:14:21;;;;;;;13.50;5.78;;;9.40;99.90;;;;;;5029468;28;20025;-77
2024/01/31 12:16:47;;;;;;;7.28;5.57;;;9.40;99.90;;;;;;5038983;28;20029;-76
2024/01/31 12:19:18;;;;;;;9.43;6.25;;;9.40;99.90;;;;;;5030649;28;20021;-75
2024/01/31 12:21:44;;;;;;;8.60;6.10;;;9.40;99.90;;;;;;5035195;28;20039;-78
2024/01/31 12:24:10;;;;;;;11.00;6.63;;;9.50;99.90;;;;;;5042048;28;20021;-80
2024/01/31 12:26:36;;;;;;;12.77;7.30;;;9.50;99.90;;;;;;5035964;28;20059;-77
2024/01/31 12:29:02;;;;;;;11.93;7.45;;;9.50;99.90;;;;;;5031660;28;20399;-79
2024/01/31 12:31:28;;;;;;;11.23;8.57;;;9.40;99.90;;;;;;5036143;28;20473;-78
2024/01/31 12:33:54;;;;;;;14.13;9.82;;;9.50;99.90;;;;;;5034980;28;20020;-80
2024/01/31 12:36:20;;;;;;;12.82;8.68;;;9.50;99.90;;;;;;5036941;28;20017;-79